Bellwood, Illinois
Current Conditions -  °F | °C
As of 7:42 AM on Sunday 23 Nov 2014 (Local Time) from KORD Reporting Station
Light Rain Light Rain  
Wind Chill:   Ceiling: 2900
Heat Index:   Visibility: 6mi
Dew Point:   Wind: 15mph
Humidity: 80%   Direction: 190°S
Pressure: 29.75"   Gusts: NA
Location:  41.88°N, 87.87°W
Report Text: KORD 231342Z 19013KT 6SM -RA BKN029 OVC038 09/06 A2975 RMK AO2 RAB29 P0001 T00940061
Loading
Personal Weather Stations






























Interactive Weather Map New forecast layout! Learn more

10-Day Weather Forecast

Advertisements
Track Severe Weather on mobile